sensor_id;sensor_type;location;lat;lon;timestamp;P1;durP1;ratioP1;P2;durP2;ratioP2
73776;SDS011;62088;50.240;2.696;2023-06-14T00:01:44;9.30;;;6.30;;
73776;SDS011;62088;50.240;2.696;2023-06-14T00:04:15;8.70;;;6.30;;
73776;SDS011;62088;50.240;2.696;2023-06-14T00:06:47;8.57;;;6.70;;
73776;SDS011;62088;50.240;2.696;2023-06-14T00:09:17;10.70;;;6.78;;
73776;SDS011;62088;50.240;2.696;2023-06-14T00:11:44;9.10;;;6.95;;
73776;SDS011;62088;50.240;2.696;2023-06-14T00:14:11;9.73;;;6.53;;
73776;SDS011;62088;50.240;2.696;2023-06-14T00:16:39;11.13;;;7.25;;
73776;SDS011;62088;50.240;2.696;2023-06-14T00:19:09;10.15;;;7.35;;
73776;SDS011;62088;50.240;2.696;2023-06-14T00:21:37;11.60;;;7.57;;
73776;SDS011;62088;50.240;2.696;2023-06-14T00:24:04;10.30;;;7.05;;
73776;SDS011;62088;50.240;2.696;2023-06-14T00:26:32;11.38;;;6.95;;
73776;SDS011;62088;50.240;2.696;2023-06-14T00:28:59;10.55;;;6.93;;
73776;SDS011;62088;50.240;2.696;2023-06-14T00:31:26;10.88;;;6.97;;
73776;SDS011;62088;50.240;2.696;2023-06-14T00:33:53;11.75;;;7.47;;
73776;SDS011;62088;50.240;2.696;2023-06-14T00:36:20;11.50;;;6.40;;
73776;SDS011;62088;50.240;2.696;2023-06-14T00:38:47;10.15;;;7.03;;
73776;SDS011;62088;50.240;2.696;2023-06-14T00:41:14;14.10;;;6.70;;
73776;SDS011;62088;50.240;2.696;2023-06-14T00:43:41;9.95;;;6.55;;
73776;SDS011;62088;50.240;2.696;2023-06-14T00:46:08;11.20;;;6.15;;
73776;SDS011;62088;50.240;2.696;2023-06-14T00:48:36;10.75;;;6.40;;
73776;SDS011;62088;50.240;2.696;2023-06-14T00:51:05;9.02;;;6.30;;
73776;SDS011;62088;50.240;2.696;2023-06-14T00:53:33;11.73;;;6.65;;
73776;SDS011;62088;50.240;2.696;2023-06-14T00:56:02;9.13;;;6.30;;
73776;SDS011;62088;50.240;2.696;2023-06-14T00:58:30;11.02;;;6.80;;
73776;SDS011;62088;50.240;2.696;2023-06-14T01:00:57;10.18;;;6.70;;
73776;SDS011;62088;50.240;2.696;2023-06-14T01:03:24;10.57;;;6.70;;
73776;SDS011;62088;50.240;2.696;2023-06-14T01:05:53;9.70;;;6.65;;
73776;SDS011;62088;50.240;2.696;2023-06-14T01:08:34;9.90;;;6.68;;
73776;SDS011;62088;50.240;2.696;2023-06-14T01:11:26;11.05;;;6.32;;
73776;SDS011;62088;50.240;2.696;2023-06-14T01:13:57;9.82;;;6.18;;
73776;SDS011;62088;50.240;2.696;2023-06-14T01:16:28;9.07;;;6.78;;
73776;SDS011;62088;50.240;2.696;2023-06-14T01:18:58;8.88;;;6.75;;
73776;SDS011;62088;50.240;2.696;2023-06-14T01:21:25;8.68;;;6.32;;
73776;SDS011;62088;50.240;2.696;2023-06-14T01:23:54;8.85;;;6.55;;
73776;SDS011;62088;50.240;2.696;2023-06-14T01:26:25;10.00;;;6.82;;
73776;SDS011;62088;50.240;2.696;2023-06-14T01:28:57;9.75;;;6.72;;
73776;SDS011;62088;50.240;2.696;2023-06-14T01:31:25;10.05;;;6.28;;
73776;SDS011;62088;50.240;2.696;2023-06-14T01:33:53;10.13;;;6.43;;
73776;SDS011;62088;50.240;2.696;2023-06-14T01:36:22;9.82;;;6.50;;
73776;SDS011;62088;50.240;2.696;2023-06-14T01:41:26;10.60;;;6.35;;
73776;SDS011;62088;50.240;2.696;2023-06-14T01:43:55;9.85;;;6.57;;
73776;SDS011;62088;50.240;2.696;2023-06-14T01:46:23;9.75;;;6.30;;
73776;SDS011;62088;50.240;2.696;2023-06-14T01:48:53;9.15;;;6.10;;
73776;SDS011;62088;50.240;2.696;2023-06-14T01:51:20;11.05;;;6.88;;
73776;SDS011;62088;50.240;2.696;2023-06-14T01:53:47;7.72;;;6.35;;
73776;SDS011;62088;50.240;2.696;2023-06-14T01:56:15;12.45;;;6.47;;
73776;SDS011;62088;50.240;2.696;2023-06-14T01:58:42;10.38;;;6.68;;
73776;SDS011;62088;50.240;2.696;2023-06-14T02:01:09;13.95;;;7.25;;
73776;SDS011;62088;50.240;2.696;2023-06-14T02:03:38;10.50;;;6.97;;
73776;SDS011;62088;50.240;2.696;2023-06-14T02:06:05;11.40;;;6.68;;
73776;SDS011;62088;50.240;2.696;2023-06-14T02:08:32;9.95;;;6.50;;
73776;SDS011;62088;50.240;2.696;2023-06-14T02:10:59;11.18;;;6.97;;
73776;SDS011;62088;50.240;2.696;2023-06-14T02:13:26;8.50;;;6.32;;
73776;SDS011;62088;50.240;2.696;2023-06-14T02:15:53;12.38;;;7.18;;
73776;SDS011;62088;50.240;2.696;2023-06-14T02:18:22;9.60;;;7.28;;
73776;SDS011;62088;50.240;2.696;2023-06-14T02:20:50;14.15;;;6.78;;
73776;SDS011;62088;50.240;2.696;2023-06-14T02:23:17;12.32;;;6.95;;
73776;SDS011;62088;50.240;2.696;2023-06-14T02:25:44;11.88;;;6.65;;
73776;SDS011;62088;50.240;2.696;2023-06-14T02:28:12;12.45;;;7.63;;
73776;SDS011;62088;50.240;2.696;2023-06-14T02:30:40;9.25;;;6.53;;
73776;SDS011;62088;50.240;2.696;2023-06-14T02:33:07;11.93;;;6.30;;
73776;SDS011;62088;50.240;2.696;2023-06-14T02:35:34;9.63;;;6.65;;
73776;SDS011;62088;50.240;2.696;2023-06-14T02:38:01;9.57;;;6.72;;
73776;SDS011;62088;50.240;2.696;2023-06-14T02:40:29;8.55;;;6.22;;
73776;SDS011;62088;50.240;2.696;2023-06-14T02:42:56;10.10;;;6.05;;
73776;SDS011;62088;50.240;2.696;2023-06-14T02:45:23;9.73;;;6.50;;
73776;SDS011;62088;50.240;2.696;2023-06-14T02:47:50;11.15;;;6.70;;
73776;SDS011;62088;50.240;2.696;2023-06-14T02:50:18;10.85;;;6.55;;
73776;SDS011;62088;50.240;2.696;2023-06-14T02:52:45;11.18;;;6.40;;
73776;SDS011;62088;50.240;2.696;2023-06-14T02:55:12;12.45;;;7.28;;
73776;SDS011;62088;50.240;2.696;2023-06-14T02:57:39;13.05;;;7.22;;
73776;SDS011;62088;50.240;2.696;2023-06-14T03:00:08;11.32;;;7.05;;
73776;SDS011;62088;50.240;2.696;2023-06-14T03:02:37;13.10;;;7.07;;
73776;SDS011;62088;50.240;2.696;2023-06-14T03:05:04;9.23;;;7.13;;
73776;SDS011;62088;50.240;2.696;2023-06-14T03:07:34;9.45;;;6.32;;
73776;SDS011;62088;50.240;2.696;2023-06-14T03:10:03;14.27;;;6.50;;
73776;SDS011;62088;50.240;2.696;2023-06-14T03:12:30;16.90;;;6.60;;
73776;SDS011;62088;50.240;2.696;2023-06-14T03:14:58;11.57;;;6.03;;
73776;SDS011;62088;50.240;2.696;2023-06-14T03:17:31;12.30;;;6.90;;
73776;SDS011;62088;50.240;2.696;2023-06-14T03:20:02;10.27;;;7.15;;
73776;SDS011;62088;50.240;2.696;2023-06-14T03:22:29;8.55;;;6.22;;
73776;SDS011;62088;50.240;2.696;2023-06-14T03:24:58;9.02;;;6.30;;
73776;SDS011;62088;50.240;2.696;2023-06-14T03:27:28;11.93;;;6.72;;
73776;SDS011;62088;50.240;2.696;2023-06-14T03:29:55;12.40;;;6.10;;
73776;SDS011;62088;50.240;2.696;2023-06-14T03:32:22;12.23;;;6.55;;
73776;SDS011;62088;50.240;2.696;2023-06-14T03:34:49;11.43;;;6.57;;
73776;SDS011;62088;50.240;2.696;2023-06-14T03:37:21;9.40;;;6.50;;
73776;SDS011;62088;50.240;2.696;2023-06-14T03:39:48;10.15;;;6.65;;
73776;SDS011;62088;50.240;2.696;2023-06-14T03:42:21;12.95;;;6.60;;
73776;SDS011;62088;50.240;2.696;2023-06-14T03:44:49;10.60;;;7.00;;
73776;SDS011;62088;50.240;2.696;2023-06-14T03:47:18;10.45;;;6.35;;
73776;SDS011;62088;50.240;2.696;2023-06-14T03:49:46;10.02;;;6.15;;
73776;SDS011;62088;50.240;2.696;2023-06-14T03:52:13;11.35;;;6.97;;
73776;SDS011;62088;50.240;2.696;2023-06-14T03:54:43;10.15;;;6.63;;
73776;SDS011;62088;50.240;2.696;2023-06-14T03:57:15;12.35;;;6.70;;
73776;SDS011;62088;50.240;2.696;2023-06-14T03:59:43;12.10;;;6.47;;
73776;SDS011;62088;50.240;2.696;2023-06-14T04:02:10;10.80;;;6.85;;
73776;SDS011;62088;50.240;2.696;2023-06-14T04:04:42;7.95;;;5.90;;
73776;SDS011;62088;50.240;2.696;2023-06-14T04:07:12;9.05;;;5.82;;
73776;SDS011;62088;50.240;2.696;2023-06-14T04:09:39;13.98;;;6.90;;
73776;SDS011;62088;50.240;2.696;2023-06-14T04:12:07;14.43;;;6.47;;
73776;SDS011;62088;50.240;2.696;2023-06-14T04:14:41;9.55;;;6.10;;
73776;SDS011;62088;50.240;2.696;2023-06-14T04:17:09;12.80;;;6.82;;
73776;SDS011;62088;50.240;2.696;2023-06-14T04:19:39;9.20;;;5.90;;
73776;SDS011;62088;50.240;2.696;2023-06-14T04:22:06;11.82;;;6.53;;
73776;SDS011;62088;50.240;2.696;2023-06-14T04:24:35;11.73;;;7.07;;
73776;SDS011;62088;50.240;2.696;2023-06-14T04:27:03;11.45;;;6.60;;
73776;SDS011;62088;50.240;2.696;2023-06-14T04:29:31;12.77;;;6.82;;
73776;SDS011;62088;50.240;2.696;2023-06-14T04:32:04;10.07;;;5.95;;
73776;SDS011;62088;50.240;2.696;2023-06-14T04:34:32;10.38;;;6.80;;
73776;SDS011;62088;50.240;2.696;2023-06-14T04:37:02;9.02;;;5.70;;
73776;SDS011;62088;50.240;2.696;2023-06-14T04:39:35;10.52;;;6.75;;
73776;SDS011;62088;50.240;2.696;2023-06-14T04:42:02;12.43;;;6.35;;
73776;SDS011;62088;50.240;2.696;2023-06-14T04:44:32;8.80;;;6.45;;
73776;SDS011;62088;50.240;2.696;2023-06-14T04:47:01;9.60;;;6.55;;
73776;SDS011;62088;50.240;2.696;2023-06-14T04:49:29;8.88;;;5.65;;
73776;SDS011;62088;50.240;2.696;2023-06-14T04:51:59;16.58;;;7.18;;
73776;SDS011;62088;50.240;2.696;2023-06-14T04:54:39;12.82;;;6.65;;
73776;SDS011;62088;50.240;2.696;2023-06-14T04:57:12;14.93;;;6.50;;
73776;SDS011;62088;50.240;2.696;2023-06-14T04:59:43;9.25;;;6.32;;
73776;SDS011;62088;50.240;2.696;2023-06-14T05:02:11;9.55;;;6.10;;
73776;SDS011;62088;50.240;2.696;2023-06-14T05:04:38;9.00;;;5.60;;
73776;SDS011;62088;50.240;2.696;2023-06-14T05:07:07;10.25;;;6.72;;
73776;SDS011;62088;50.240;2.696;2023-06-14T05:09:35;15.48;;;7.03;;
73776;SDS011;62088;50.240;2.696;2023-06-14T05:12:03;12.07;;;6.97;;
73776;SDS011;62088;50.240;2.696;2023-06-14T05:14:31;9.57;;;6.78;;
73776;SDS011;62088;50.240;2.696;2023-06-14T05:16:58;8.80;;;5.97;;
73776;SDS011;62088;50.240;2.696;2023-06-14T05:19:26;12.18;;;6.28;;
73776;SDS011;62088;50.240;2.696;2023-06-14T05:21:53;13.95;;;6.75;;
73776;SDS011;62088;50.240;2.696;2023-06-14T05:24:20;9.23;;;5.85;;
73776;SDS011;62088;50.240;2.696;2023-06-14T05:26:47;11.52;;;6.45;;
73776;SDS011;62088;50.240;2.696;2023-06-14T05:29:15;13.85;;;6.55;;
73776;SDS011;62088;50.240;2.696;2023-06-14T05:31:42;10.18;;;6.47;;
73776;SDS011;62088;50.240;2.696;2023-06-14T05:34:09;14.02;;;8.93;;
73776;SDS011;62088;50.240;2.696;2023-06-14T05:36:37;10.35;;;6.60;;
73776;SDS011;62088;50.240;2.696;2023-06-14T05:39:04;12.73;;;7.15;;
73776;SDS011;62088;50.240;2.696;2023-06-14T05:41:33;13.65;;;10.20;;
73776;SDS011;62088;50.240;2.696;2023-06-14T05:44:00;13.82;;;9.48;;
73776;SDS011;62088;50.240;2.696;2023-06-14T05:46:28;12.30;;;8.52;;
73776;SDS011;62088;50.240;2.696;2023-06-14T05:48:55;12.98;;;7.65;;
73776;SDS011;62088;50.240;2.696;2023-06-14T05:51:22;13.23;;;9.02;;
73776;SDS011;62088;50.240;2.696;2023-06-14T05:53:52;16.50;;;12.20;;
73776;SDS011;62088;50.240;2.696;2023-06-14T05:56:19;15.48;;;11.55;;
73776;SDS011;62088;50.240;2.696;2023-06-14T05:58:46;14.20;;;10.38;;
73776;SDS011;62088;50.240;2.696;2023-06-14T06:01:14;14.80;;;10.20;;
73776;SDS011;62088;50.240;2.696;2023-06-14T06:03:42;17.80;;;11.52;;
73776;SDS011;62088;50.240;2.696;2023-06-14T06:06:13;14.20;;;10.10;;
73776;SDS011;62088;50.240;2.696;2023-06-14T06:08:41;13.73;;;9.20;;
73776;SDS011;62088;50.240;2.696;2023-06-14T06:11:09;15.15;;;10.52;;
73776;SDS011;62088;50.240;2.696;2023-06-14T06:13:36;14.65;;;8.93;;
73776;SDS011;62088;50.240;2.696;2023-06-14T06:16:03;16.33;;;11.95;;
73776;SDS011;62088;50.240;2.696;2023-06-14T06:18:31;13.90;;;10.38;;
73776;SDS011;62088;50.240;2.696;2023-06-14T06:20:58;11.05;;;9.00;;
73776;SDS011;62088;50.240;2.696;2023-06-14T06:23:25;14.82;;;10.25;;
73776;SDS011;62088;50.240;2.696;2023-06-14T06:25:52;12.00;;;9.88;;
73776;SDS011;62088;50.240;2.696;2023-06-14T06:28:19;15.82;;;11.40;;
73776;SDS011;62088;50.240;2.696;2023-06-14T06:30:47;12.93;;;10.02;;
73776;SDS011;62088;50.240;2.696;2023-06-14T06:33:14;17.05;;;11.32;;
73776;SDS011;62088;50.240;2.696;2023-06-14T06:35:41;13.65;;;10.30;;
73776;SDS011;62088;50.240;2.696;2023-06-14T06:38:09;14.95;;;11.43;;
73776;SDS011;62088;50.240;2.696;2023-06-14T06:40:36;13.45;;;10.55;;
73776;SDS011;62088;50.240;2.696;2023-06-14T06:43:03;14.93;;;10.70;;
73776;SDS011;62088;50.240;2.696;2023-06-14T06:45:39;16.13;;;11.43;;
73776;SDS011;62088;50.240;2.696;2023-06-14T06:48:06;16.33;;;10.80;;
73776;SDS011;62088;50.240;2.696;2023-06-14T06:50:34;12.40;;;9.93;;
73776;SDS011;62088;50.240;2.696;2023-06-14T06:53:01;16.17;;;10.15;;
73776;SDS011;62088;50.240;2.696;2023-06-14T06:55:28;14.18;;;9.98;;
73776;SDS011;62088;50.240;2.696;2023-06-14T06:57:55;13.05;;;9.43;;
73776;SDS011;62088;50.240;2.696;2023-06-14T07:00:22;19.25;;;8.00;;
73776;SDS011;62088;50.240;2.696;2023-06-14T07:02:53;12.15;;;8.48;;
73776;SDS011;62088;50.240;2.696;2023-06-14T07:05:22;10.85;;;7.80;;
73776;SDS011;62088;50.240;2.696;2023-06-14T07:07:49;13.35;;;6.88;;
73776;SDS011;62088;50.240;2.696;2023-06-14T07:10:16;13.77;;;7.07;;
73776;SDS011;62088;50.240;2.696;2023-06-14T07:12:44;15.55;;;8.45;;
73776;SDS011;62088;50.240;2.696;2023-06-14T07:15:11;11.70;;;7.50;;
73776;SDS011;62088;50.240;2.696;2023-06-14T07:17:39;12.43;;;7.57;;
73776;SDS011;62088;50.240;2.696;2023-06-14T07:20:07;12.35;;;7.63;;
73776;SDS011;62088;50.240;2.696;2023-06-14T07:22:35;9.65;;;6.82;;
73776;SDS011;62088;50.240;2.696;2023-06-14T07:25:02;12.35;;;7.68;;
73776;SDS011;62088;50.240;2.696;2023-06-14T07:27:30;10.30;;;6.97;;
73776;SDS011;62088;50.240;2.696;2023-06-14T07:29:57;11.63;;;7.25;;
73776;SDS011;62088;50.240;2.696;2023-06-14T07:32:24;11.43;;;7.05;;
73776;SDS011;62088;50.240;2.696;2023-06-14T07:34:51;13.38;;;7.20;;
73776;SDS011;62088;50.240;2.696;2023-06-14T07:37:18;13.35;;;7.63;;
73776;SDS011;62088;50.240;2.696;2023-06-14T07:39:45;11.32;;;6.93;;
73776;SDS011;62088;50.240;2.696;2023-06-14T07:42:12;12.95;;;7.78;;
73776;SDS011;62088;50.240;2.696;2023-06-14T07:44:39;12.82;;;8.02;;
73776;SDS011;62088;50.240;2.696;2023-06-14T07:47:07;12.75;;;7.55;;
73776;SDS011;62088;50.240;2.696;2023-06-14T07:49:34;10.07;;;6.55;;
73776;SDS011;62088;50.240;2.696;2023-06-14T07:52:01;10.43;;;6.47;;
73776;SDS011;62088;50.240;2.696;2023-06-14T07:54:28;13.15;;;7.22;;
73776;SDS011;62088;50.240;2.696;2023-06-14T07:56:56;9.10;;;6.30;;
73776;SDS011;62088;50.240;2.696;2023-06-14T07:59:23;12.27;;;6.88;;
73776;SDS011;62088;50.240;2.696;2023-06-14T08:01:50;9.55;;;6.13;;
73776;SDS011;62088;50.240;2.696;2023-06-14T08:04:18;11.57;;;7.13;;
73776;SDS011;62088;50.240;2.696;2023-06-14T08:06:45;11.90;;;7.70;;
73776;SDS011;62088;50.240;2.696;2023-06-14T08:09:12;14.38;;;7.50;;
73776;SDS011;62088;50.240;2.696;2023-06-14T08:11:39;12.25;;;7.72;;
73776;SDS011;62088;50.240;2.696;2023-06-14T08:14:07;13.23;;;6.50;;
73776;SDS011;62088;50.240;2.696;2023-06-14T08:16:34;12.45;;;6.53;;
73776;SDS011;62088;50.240;2.696;2023-06-14T08:19:01;15.73;;;7.15;;
73776;SDS011;62088;50.240;2.696;2023-06-14T08:21:28;15.63;;;7.13;;
73776;SDS011;62088;50.240;2.696;2023-06-14T08:23:57;11.55;;;6.47;;
73776;SDS011;62088;50.240;2.696;2023-06-14T08:26:24;10.48;;;6.35;;
73776;SDS011;62088;50.240;2.696;2023-06-14T08:28:55;11.40;;;6.47;;
73776;SDS011;62088;50.240;2.696;2023-06-14T08:31:23;11.18;;;6.32;;
73776;SDS011;62088;50.240;2.696;2023-06-14T08:33:51;11.82;;;6.30;;
73776;SDS011;62088;50.240;2.696;2023-06-14T08:36:19;8.23;;;5.15;;
73776;SDS011;62088;50.240;2.696;2023-06-14T08:38:46;12.38;;;6.63;;
73776;SDS011;62088;50.240;2.696;2023-06-14T08:41:13;7.97;;;5.82;;
73776;SDS011;62088;50.240;2.696;2023-06-14T08:43:48;10.63;;;5.65;;
73776;SDS011;62088;50.240;2.696;2023-06-14T08:46:17;12.00;;;6.63;;
73776;SDS011;62088;50.240;2.696;2023-06-14T08:48:49;8.88;;;5.95;;
73776;SDS011;62088;50.240;2.696;2023-06-14T08:51:18;11.70;;;5.70;;
73776;SDS011;62088;50.240;2.696;2023-06-14T08:53:51;14.00;;;6.13;;
73776;SDS011;62088;50.240;2.696;2023-06-14T08:56:27;12.63;;;5.18;;
73776;SDS011;62088;50.240;2.696;2023-06-14T08:58:56;11.63;;;5.93;;
73776;SDS011;62088;50.240;2.696;2023-06-14T09:01:26;9.32;;;5.63;;
73776;SDS011;62088;50.240;2.696;2023-06-14T09:03:53;9.25;;;5.50;;
73776;SDS011;62088;50.240;2.696;2023-06-14T09:06:24;8.65;;;5.47;;
73776;SDS011;62088;50.240;2.696;2023-06-14T09:08:51;8.13;;;5.32;;
73776;SDS011;62088;50.240;2.696;2023-06-14T09:11:19;9.07;;;5.00;;
73776;SDS011;62088;50.240;2.696;2023-06-14T09:13:46;9.68;;;5.40;;
73776;SDS011;62088;50.240;2.696;2023-06-14T09:16:14;13.70;;;5.32;;
73776;SDS011;62088;50.240;2.696;2023-06-14T09:18:41;8.55;;;5.18;;
73776;SDS011;62088;50.240;2.696;2023-06-14T09:21:11;20.70;;;5.30;;
73776;SDS011;62088;50.240;2.696;2023-06-14T09:23:39;9.98;;;5.40;;
73776;SDS011;62088;50.240;2.696;2023-06-14T09:26:13;9.25;;;5.47;;
73776;SDS011;62088;50.240;2.696;2023-06-14T09:28:42;6.45;;;4.75;;
73776;SDS011;62088;50.240;2.696;2023-06-14T09:31:13;8.15;;;4.93;;
73776;SDS011;62088;50.240;2.696;2023-06-14T09:33:45;8.73;;;4.68;;
73776;SDS011;62088;50.240;2.696;2023-06-14T09:36:17;9.38;;;4.78;;
73776;SDS011;62088;50.240;2.696;2023-06-14T09:38:52;12.50;;;5.03;;
73776;SDS011;62088;50.240;2.696;2023-06-14T09:41:20;8.50;;;4.93;;
73776;SDS011;62088;50.240;2.696;2023-06-14T09:43:48;7.43;;;4.97;;
73776;SDS011;62088;50.240;2.696;2023-06-14T09:46:16;8.90;;;4.72;;
73776;SDS011;62088;50.240;2.696;2023-06-14T09:48:43;6.70;;;4.80;;
73776;SDS011;62088;50.240;2.696;2023-06-14T09:51:11;8.00;;;4.90;;
73776;SDS011;62088;50.240;2.696;2023-06-14T09:53:41;8.68;;;5.28;;
73776;SDS011;62088;50.240;2.696;2023-06-14T09:56:10;7.75;;;4.97;;
73776;SDS011;62088;50.240;2.696;2023-06-14T09:58:38;9.95;;;4.70;;
73776;SDS011;62088;50.240;2.696;2023-06-14T10:01:07;12.27;;;4.55;;
73776;SDS011;62088;50.240;2.696;2023-06-14T10:03:35;7.85;;;4.90;;
73776;SDS011;62088;50.240;2.696;2023-06-14T10:06:22;9.13;;;5.50;;
73776;SDS011;62088;50.240;2.696;2023-06-14T10:08:55;7.97;;;5.22;;
73776;SDS011;62088;50.240;2.696;2023-06-14T10:11:26;7.32;;;4.57;;
73776;SDS011;62088;50.240;2.696;2023-06-14T10:13:57;8.00;;;4.88;;
73776;SDS011;62088;50.240;2.696;2023-06-14T10:16:31;6.93;;;4.82;;
73776;SDS011;62088;50.240;2.696;2023-06-14T10:21:57;9.00;;;4.93;;
73776;SDS011;62088;50.240;2.696;2023-06-14T10:24:30;8.00;;;4.47;;
73776;SDS011;62088;50.240;2.696;2023-06-14T10:26:59;7.65;;;4.97;;
73776;SDS011;62088;50.240;2.696;2023-06-14T10:29:27;12.57;;;5.43;;
73776;SDS011;62088;50.240;2.696;2023-06-14T10:31:59;8.55;;;4.95;;
73776;SDS011;62088;50.240;2.696;2023-06-14T10:34:28;7.55;;;5.00;;
73776;SDS011;62088;50.240;2.696;2023-06-14T10:39:40;7.63;;;4.72;;
73776;SDS011;62088;50.240;2.696;2023-06-14T10:42:14;9.25;;;4.93;;
73776;SDS011;62088;50.240;2.696;2023-06-14T10:44:51;15.40;;;5.10;;
73776;SDS011;62088;50.240;2.696;2023-06-14T10:47:28;13.00;;;4.65;;
73776;SDS011;62088;50.240;2.696;2023-06-14T10:52:40;8.07;;;4.07;;
73776;SDS011;62088;50.240;2.696;2023-06-14T10:55:12;6.93;;;4.05;;
73776;SDS011;62088;50.240;2.696;2023-06-14T10:57:53;6.80;;;4.80;;
73776;SDS011;62088;50.240;2.696;2023-06-14T11:00:26;6.85;;;4.40;;
73776;SDS011;62088;50.240;2.696;2023-06-14T11:03:16;5.70;;;4.22;;
73776;SDS011;62088;50.240;2.696;2023-06-14T11:05:55;6.65;;;4.30;;
73776;SDS011;62088;50.240;2.696;2023-06-14T11:08:27;7.43;;;4.50;;
73776;SDS011;62088;50.240;2.696;2023-06-14T11:11:05;7.82;;;4.47;;
73776;SDS011;62088;50.240;2.696;2023-06-14T11:13:34;8.00;;;3.85;;
73776;SDS011;62088;50.240;2.696;2023-06-14T11:16:09;5.43;;;4.05;;
73776;SDS011;62088;50.240;2.696;2023-06-14T11:18:38;7.40;;;3.58;;
73776;SDS011;62088;50.240;2.696;2023-06-14T11:21:05;5.68;;;3.72;;
73776;SDS011;62088;50.240;2.696;2023-06-14T11:23:33;7.88;;;4.10;;
73776;SDS011;62088;50.240;2.696;2023-06-14T11:26:00;6.32;;;4.03;;
73776;SDS011;62088;50.240;2.696;2023-06-14T11:28:40;6.72;;;4.13;;
73776;SDS011;62088;50.240;2.696;2023-06-14T11:31:07;6.97;;;3.90;;
73776;SDS011;62088;50.240;2.696;2023-06-14T11:33:35;6.57;;;3.90;;
73776;SDS011;62088;50.240;2.696;2023-06-14T11:36:03;5.82;;;3.67;;
73776;SDS011;62088;50.240;2.696;2023-06-14T11:38:35;6.32;;;3.42;;
73776;SDS011;62088;50.240;2.696;2023-06-14T11:41:03;6.05;;;3.80;;
73776;SDS011;62088;50.240;2.696;2023-06-14T11:43:31;8.07;;;4.00;;
73776;SDS011;62088;50.240;2.696;2023-06-14T11:46:00;6.88;;;4.10;;
73776;SDS011;62088;50.240;2.696;2023-06-14T11:48:37;6.60;;;4.07;;
73776;SDS011;62088;50.240;2.696;2023-06-14T11:51:06;8.02;;;3.75;;
73776;SDS011;62088;50.240;2.696;2023-06-14T11:53:33;5.82;;;3.90;;
73776;SDS011;62088;50.240;2.696;2023-06-14T11:56:00;6.50;;;3.72;;
73776;SDS011;62088;50.240;2.696;2023-06-14T11:58:29;5.82;;;3.58;;
73776;SDS011;62088;50.240;2.696;2023-06-14T12:00:56;5.35;;;3.70;;
73776;SDS011;62088;50.240;2.696;2023-06-14T12:03:24;6.90;;;3.85;;
73776;SDS011;62088;50.240;2.696;2023-06-14T12:06:04;5.15;;;3.40;;
73776;SDS011;62088;50.240;2.696;2023-06-14T12:08:36;5.70;;;3.60;;
73776;SDS011;62088;50.240;2.696;2023-06-14T12:11:10;5.15;;;3.72;;
73776;SDS011;62088;50.240;2.696;2023-06-14T12:13:42;7.03;;;3.80;;
73776;SDS011;62088;50.240;2.696;2023-06-14T12:16:10;5.63;;;4.18;;
73776;SDS011;62088;50.240;2.696;2023-06-14T12:18:39;7.45;;;3.67;;
73776;SDS011;62088;50.240;2.696;2023-06-14T12:21:08;6.93;;;3.70;;
73776;SDS011;62088;50.240;2.696;2023-06-14T12:23:43;5.53;;;3.67;;
73776;SDS011;62088;50.240;2.696;2023-06-14T12:26:12;6.47;;;3.67;;
73776;SDS011;62088;50.240;2.696;2023-06-14T12:28:41;6.72;;;4.25;;
73776;SDS011;62088;50.240;2.696;2023-06-14T12:31:10;6.63;;;3.38;;
73776;SDS011;62088;50.240;2.696;2023-06-14T12:33:41;7.80;;;4.18;;
73776;SDS011;62088;50.240;2.696;2023-06-14T12:36:09;5.25;;;3.40;;
73776;SDS011;62088;50.240;2.696;2023-06-14T12:38:37;8.07;;;3.63;;
73776;SDS011;62088;50.240;2.696;2023-06-14T12:41:04;4.88;;;3.58;;
73776;SDS011;62088;50.240;2.696;2023-06-14T12:43:32;5.93;;;4.03;;
73776;SDS011;62088;50.240;2.696;2023-06-14T12:45:59;7.63;;;3.97;;
73776;SDS011;62088;50.240;2.696;2023-06-14T12:48:27;5.45;;;3.58;;
73776;SDS011;62088;50.240;2.696;2023-06-14T12:50:56;6.88;;;3.97;;
73776;SDS011;62088;50.240;2.696;2023-06-14T12:53:23;9.27;;;3.85;;
73776;SDS011;62088;50.240;2.696;2023-06-14T12:55:50;5.75;;;3.90;;
73776;SDS011;62088;50.240;2.696;2023-06-14T12:58:18;9.90;;;3.90;;
73776;SDS011;62088;50.240;2.696;2023-06-14T13:00:47;8.05;;;4.15;;
73776;SDS011;62088;50.240;2.696;2023-06-14T13:03:15;6.05;;;3.80;;
73776;SDS011;62088;50.240;2.696;2023-06-14T13:05:42;6.25;;;4.00;;
73776;SDS011;62088;50.240;2.696;2023-06-14T13:08:09;6.03;;;3.55;;
73776;SDS011;62088;50.240;2.696;2023-06-14T13:10:36;5.53;;;3.28;;
73776;SDS011;62088;50.240;2.696;2023-06-14T13:13:04;5.13;;;3.38;;
73776;SDS011;62088;50.240;2.696;2023-06-14T13:15:31;6.70;;;3.78;;
73776;SDS011;62088;50.240;2.696;2023-06-14T13:17:58;6.68;;;3.70;;
73776;SDS011;62088;50.240;2.696;2023-06-14T13:20:25;5.85;;;3.80;;
73776;SDS011;62088;50.240;2.696;2023-06-14T13:22:52;6.35;;;3.60;;
73776;SDS011;62088;50.240;2.696;2023-06-14T13:25:19;5.38;;;3.50;;
73776;SDS011;62088;50.240;2.696;2023-06-14T13:27:46;6.85;;;3.70;;
73776;SDS011;62088;50.240;2.696;2023-06-14T13:30:13;6.13;;;3.60;;
73776;SDS011;62088;50.240;2.696;2023-06-14T13:32:42;8.10;;;3.92;;
73776;SDS011;62088;50.240;2.696;2023-06-14T13:35:09;6.97;;;3.85;;
73776;SDS011;62088;50.240;2.696;2023-06-14T13:37:36;5.57;;;3.47;;
73776;SDS011;62088;50.240;2.696;2023-06-14T13:40:03;7.72;;;3.72;;
73776;SDS011;62088;50.240;2.696;2023-06-14T13:42:32;8.82;;;4.15;;
73776;SDS011;62088;50.240;2.696;2023-06-14T13:44:59;6.22;;;3.72;;
73776;SDS011;62088;50.240;2.696;2023-06-14T13:47:26;5.78;;;3.63;;
73776;SDS011;62088;50.240;2.696;2023-06-14T13:49:53;7.75;;;3.80;;
73776;SDS011;62088;50.240;2.696;2023-06-14T13:52:20;5.55;;;3.40;;
73776;SDS011;62088;50.240;2.696;2023-06-14T13:54:47;6.13;;;4.13;;
73776;SDS011;62088;50.240;2.696;2023-06-14T13:57:15;6.10;;;3.45;;
73776;SDS011;62088;50.240;2.696;2023-06-14T13:59:42;6.05;;;3.67;;
73776;SDS011;62088;50.240;2.696;2023-06-14T14:02:12;5.07;;;3.15;;
73776;SDS011;62088;50.240;2.696;2023-06-14T14:04:40;6.00;;;3.63;;
73776;SDS011;62088;50.240;2.696;2023-06-14T14:07:07;5.35;;;3.42;;
73776;SDS011;62088;50.240;2.696;2023-06-14T14:09:35;11.30;;;3.92;;
73776;SDS011;62088;50.240;2.696;2023-06-14T14:12:02;5.15;;;3.53;;
73776;SDS011;62088;50.240;2.696;2023-06-14T14:14:30;5.53;;;3.78;;
73776;SDS011;62088;50.240;2.696;2023-06-14T14:16:58;4.60;;;3.30;;
73776;SDS011;62088;50.240;2.696;2023-06-14T14:19:25;4.97;;;3.70;;
73776;SDS011;62088;50.240;2.696;2023-06-14T14:21:53;11.10;;;3.60;;
73776;SDS011;62088;50.240;2.696;2023-06-14T14:24:20;5.72;;;3.47;;
73776;SDS011;62088;50.240;2.696;2023-06-14T14:26:47;5.32;;;3.50;;
73776;SDS011;62088;50.240;2.696;2023-06-14T14:29:16;8.68;;;3.80;;
73776;SDS011;62088;50.240;2.696;2023-06-14T14:31:43;8.82;;;3.97;;
73776;SDS011;62088;50.240;2.696;2023-06-14T14:34:11;4.60;;;3.10;;
73776;SDS011;62088;50.240;2.696;2023-06-14T14:36:38;5.85;;;3.80;;
73776;SDS011;62088;50.240;2.696;2023-06-14T14:39:09;5.65;;;3.85;;
73776;SDS011;62088;50.240;2.696;2023-06-14T14:41:36;5.30;;;3.83;;
73776;SDS011;62088;50.240;2.696;2023-06-14T14:44:07;5.75;;;3.88;;
73776;SDS011;62088;50.240;2.696;2023-06-14T14:46:35;19.08;;;3.85;;
73776;SDS011;62088;50.240;2.696;2023-06-14T14:49:02;8.68;;;3.88;;
73776;SDS011;62088;50.240;2.696;2023-06-14T14:51:29;5.68;;;3.90;;
73776;SDS011;62088;50.240;2.696;2023-06-14T14:53:56;9.15;;;3.78;;
73776;SDS011;62088;50.240;2.696;2023-06-14T14:56:23;6.07;;;3.70;;
73776;SDS011;62088;50.240;2.696;2023-06-14T14:58:52;5.80;;;3.72;;
73776;SDS011;62088;50.240;2.696;2023-06-14T15:01:19;7.80;;;3.75;;